sensor_id;sensor_type;location;lat;lon;timestamp;P1;durP1;ratioP1;P2;durP2;ratioP2
53036;SDS011;38924;52.134;4.666;2023-04-30T00:00:49;21.08;;;12.73;;
53036;SDS011;38924;52.134;4.666;2023-04-30T00:03:15;15.90;;;11.80;;
53036;SDS011;38924;52.134;4.666;2023-04-30T00:05:40;18.33;;;12.05;;
53036;SDS011;38924;52.134;4.666;2023-04-30T00:08:06;17.92;;;12.80;;
53036;SDS011;38924;52.134;4.666;2023-04-30T00:10:32;21.98;;;13.75;;
53036;SDS011;38924;52.134;4.666;2023-04-30T00:12:57;17.40;;;12.75;;
53036;SDS011;38924;52.134;4.666;2023-04-30T00:15:23;18.52;;;11.95;;
53036;SDS011;38924;52.134;4.666;2023-04-30T00:17:51;20.00;;;11.95;;
53036;SDS011;38924;52.134;4.666;2023-04-30T00:20:17;21.00;;;13.38;;
53036;SDS011;38924;52.134;4.666;2023-04-30T00:22:45;22.27;;;13.23;;
53036;SDS011;38924;52.134;4.666;2023-04-30T00:25:11;19.48;;;12.88;;
53036;SDS011;38924;52.134;4.666;2023-04-30T00:27:37;18.67;;;12.82;;
53036;SDS011;38924;52.134;4.666;2023-04-30T00:30:02;18.88;;;14.73;;
53036;SDS011;38924;52.134;4.666;2023-04-30T00:32:31;23.60;;;14.70;;
53036;SDS011;38924;52.134;4.666;2023-04-30T00:34:57;15.85;;;12.65;;
53036;SDS011;38924;52.134;4.666;2023-04-30T00:37:23;20.60;;;12.80;;
53036;SDS011;38924;52.134;4.666;2023-04-30T00:39:48;21.88;;;15.15;;
53036;SDS011;38924;52.134;4.666;2023-04-30T00:42:14;25.80;;;15.70;;
53036;SDS011;38924;52.134;4.666;2023-04-30T00:44:40;22.73;;;15.07;;
53036;SDS011;38924;52.134;4.666;2023-04-30T00:47:05;22.90;;;14.43;;
53036;SDS011;38924;52.134;4.666;2023-04-30T00:49:31;23.45;;;16.10;;
53036;SDS011;38924;52.134;4.666;2023-04-30T00:51:57;19.02;;;13.95;;
53036;SDS011;38924;52.134;4.666;2023-04-30T00:54:22;21.92;;;15.82;;
53036;SDS011;38924;52.134;4.666;2023-04-30T00:56:48;23.08;;;16.70;;
53036;SDS011;38924;52.134;4.666;2023-04-30T00:59:14;19.83;;;15.48;;
53036;SDS011;38924;52.134;4.666;2023-04-30T01:01:40;28.08;;;15.52;;
53036;SDS011;38924;52.134;4.666;2023-04-30T01:04:06;25.33;;;15.70;;
53036;SDS011;38924;52.134;4.666;2023-04-30T01:06:32;24.02;;;15.82;;
53036;SDS011;38924;52.134;4.666;2023-04-30T01:08:57;21.00;;;15.70;;
53036;SDS011;38924;52.134;4.666;2023-04-30T01:13:52;21.10;;;15.88;;
53036;SDS011;38924;52.134;4.666;2023-04-30T01:16:26;23.38;;;16.17;;
53036;SDS011;38924;52.134;4.666;2023-04-30T01:19:08;22.15;;;15.57;;
53036;SDS011;38924;52.134;4.666;2023-04-30T01:21:37;21.90;;;15.38;;
53036;SDS011;38924;52.134;4.666;2023-04-30T01:27:12;25.23;;;16.88;;
53036;SDS011;38924;52.134;4.666;2023-04-30T01:29:40;21.23;;;15.43;;
53036;SDS011;38924;52.134;4.666;2023-04-30T01:32:07;29.50;;;19.23;;
53036;SDS011;38924;52.134;4.666;2023-04-30T01:34:34;28.30;;;16.20;;
53036;SDS011;38924;52.134;4.666;2023-04-30T01:42:20;25.15;;;16.73;;
53036;SDS011;38924;52.134;4.666;2023-04-30T01:50:00;22.63;;;16.50;;
53036;SDS011;38924;52.134;4.666;2023-04-30T01:52:31;35.05;;;17.73;;
53036;SDS011;38924;52.134;4.666;2023-04-30T01:54:59;26.05;;;17.45;;
53036;SDS011;38924;52.134;4.666;2023-04-30T01:57:33;25.95;;;17.48;;
53036;SDS011;38924;52.134;4.666;2023-04-30T02:00:02;25.30;;;18.63;;
53036;SDS011;38924;52.134;4.666;2023-04-30T02:02:38;23.88;;;16.77;;
53036;SDS011;38924;52.134;4.666;2023-04-30T02:05:04;28.77;;;18.48;;
53036;SDS011;38924;52.134;4.666;2023-04-30T02:07:40;25.45;;;18.63;;
53036;SDS011;38924;52.134;4.666;2023-04-30T02:10:07;25.73;;;17.65;;
53036;SDS011;38924;52.134;4.666;2023-04-30T02:12:33;27.55;;;17.13;;
53036;SDS011;38924;52.134;4.666;2023-04-30T02:15:02;27.30;;;17.90;;
53036;SDS011;38924;52.134;4.666;2023-04-30T02:17:28;22.48;;;16.67;;
53036;SDS011;38924;52.134;4.666;2023-04-30T02:19:53;25.98;;;17.45;;
53036;SDS011;38924;52.134;4.666;2023-04-30T02:22:19;23.52;;;18.45;;
53036;SDS011;38924;52.134;4.666;2023-04-30T02:24:45;20.92;;;15.98;;
53036;SDS011;38924;52.134;4.666;2023-04-30T02:27:10;27.17;;;17.58;;
53036;SDS011;38924;52.134;4.666;2023-04-30T02:29:36;26.27;;;18.10;;
53036;SDS011;38924;52.134;4.666;2023-04-30T02:32:01;27.05;;;17.60;;
53036;SDS011;38924;52.134;4.666;2023-04-30T02:34:27;31.08;;;18.40;;
53036;SDS011;38924;52.134;4.666;2023-04-30T02:36:56;26.27;;;17.55;;
53036;SDS011;38924;52.134;4.666;2023-04-30T02:39:22;24.17;;;17.55;;
53036;SDS011;38924;52.134;4.666;2023-04-30T02:41:48;26.20;;;17.35;;
53036;SDS011;38924;52.134;4.666;2023-04-30T02:44:14;28.35;;;18.25;;
53036;SDS011;38924;52.134;4.666;2023-04-30T02:46:39;22.45;;;16.92;;
53036;SDS011;38924;52.134;4.666;2023-04-30T02:49:05;27.70;;;17.35;;
53036;SDS011;38924;52.134;4.666;2023-04-30T02:51:33;29.17;;;18.02;;
53036;SDS011;38924;52.134;4.666;2023-04-30T02:53:59;26.10;;;18.88;;
53036;SDS011;38924;52.134;4.666;2023-04-30T02:56:34;25.98;;;18.60;;
53036;SDS011;38924;52.134;4.666;2023-04-30T02:59:00;25.65;;;17.17;;
53036;SDS011;38924;52.134;4.666;2023-04-30T03:01:26;29.13;;;18.42;;
53036;SDS011;38924;52.134;4.666;2023-04-30T03:03:52;26.40;;;17.98;;
53036;SDS011;38924;52.134;4.666;2023-04-30T03:06:18;26.17;;;17.90;;
53036;SDS011;38924;52.134;4.666;2023-04-30T03:08:43;23.98;;;17.30;;
53036;SDS011;38924;52.134;4.666;2023-04-30T03:11:09;24.88;;;17.15;;
53036;SDS011;38924;52.134;4.666;2023-04-30T03:13:35;31.83;;;17.17;;
53036;SDS011;38924;52.134;4.666;2023-04-30T03:16:01;29.55;;;19.73;;
53036;SDS011;38924;52.134;4.666;2023-04-30T03:18:27;25.75;;;17.33;;
53036;SDS011;38924;52.134;4.666;2023-04-30T03:20:55;26.30;;;17.92;;
53036;SDS011;38924;52.134;4.666;2023-04-30T03:23:22;26.38;;;17.73;;
53036;SDS011;38924;52.134;4.666;2023-04-30T03:25:47;28.60;;;18.67;;
53036;SDS011;38924;52.134;4.666;2023-04-30T03:28:13;26.60;;;16.52;;
53036;SDS011;38924;52.134;4.666;2023-04-30T03:30:39;28.40;;;17.20;;
53036;SDS011;38924;52.134;4.666;2023-04-30T03:33:05;23.10;;;16.27;;
53036;SDS011;38924;52.134;4.666;2023-04-30T03:35:34;26.55;;;17.00;;
53036;SDS011;38924;52.134;4.666;2023-04-30T03:38:03;23.60;;;16.63;;
53036;SDS011;38924;52.134;4.666;2023-04-30T03:40:29;21.83;;;16.55;;
53036;SDS011;38924;52.134;4.666;2023-04-30T03:42:54;22.30;;;15.65;;
53036;SDS011;38924;52.134;4.666;2023-04-30T03:45:20;23.58;;;16.70;;
53036;SDS011;38924;52.134;4.666;2023-04-30T03:47:46;20.60;;;14.90;;
53036;SDS011;38924;52.134;4.666;2023-04-30T03:50:13;21.55;;;15.45;;
53036;SDS011;38924;52.134;4.666;2023-04-30T03:52:41;23.70;;;16.45;;
53036;SDS011;38924;52.134;4.666;2023-04-30T03:55:08;20.90;;;16.38;;
53036;SDS011;38924;52.134;4.666;2023-04-30T03:57:34;21.52;;;15.00;;
53036;SDS011;38924;52.134;4.666;2023-04-30T04:00:00;23.02;;;15.57;;
53036;SDS011;38924;52.134;4.666;2023-04-30T04:02:45;21.13;;;14.85;;
53036;SDS011;38924;52.134;4.666;2023-04-30T04:05:10;19.63;;;14.88;;
53036;SDS011;38924;52.134;4.666;2023-04-30T04:07:36;19.73;;;14.07;;
53036;SDS011;38924;52.134;4.666;2023-04-30T04:10:02;23.25;;;16.00;;
53036;SDS011;38924;52.134;4.666;2023-04-30T04:12:30;18.25;;;14.98;;
53036;SDS011;38924;52.134;4.666;2023-04-30T04:14:56;16.90;;;13.70;;
53036;SDS011;38924;52.134;4.666;2023-04-30T04:17:22;24.70;;;14.98;;
53036;SDS011;38924;52.134;4.666;2023-04-30T04:19:48;19.02;;;14.27;;
53036;SDS011;38924;52.134;4.666;2023-04-30T04:22:15;26.38;;;15.25;;
53036;SDS011;38924;52.134;4.666;2023-04-30T04:24:41;20.38;;;14.82;;
53036;SDS011;38924;52.134;4.666;2023-04-30T04:27:08;24.60;;;15.25;;
53036;SDS011;38924;52.134;4.666;2023-04-30T04:29:34;20.88;;;14.75;;
53036;SDS011;38924;52.134;4.666;2023-04-30T04:32:00;18.23;;;14.27;;
53036;SDS011;38924;52.134;4.666;2023-04-30T04:34:28;22.23;;;14.88;;
53036;SDS011;38924;52.134;4.666;2023-04-30T04:36:53;21.70;;;14.23;;
53036;SDS011;38924;52.134;4.666;2023-04-30T04:39:19;26.08;;;16.30;;
53036;SDS011;38924;52.134;4.666;2023-04-30T04:41:45;19.90;;;15.98;;
53036;SDS011;38924;52.134;4.666;2023-04-30T04:44:10;21.92;;;15.50;;
53036;SDS011;38924;52.134;4.666;2023-04-30T04:46:36;20.85;;;14.68;;
53036;SDS011;38924;52.134;4.666;2023-04-30T04:49:03;22.35;;;16.05;;
53036;SDS011;38924;52.134;4.666;2023-04-30T04:51:29;26.48;;;16.45;;
53036;SDS011;38924;52.134;4.666;2023-04-30T04:53:54;22.50;;;14.85;;
53036;SDS011;38924;52.134;4.666;2023-04-30T04:56:20;20.13;;;15.15;;
53036;SDS011;38924;52.134;4.666;2023-04-30T04:58:46;21.90;;;17.08;;
53036;SDS011;38924;52.134;4.666;2023-04-30T05:01:12;23.30;;;15.35;;
53036;SDS011;38924;52.134;4.666;2023-04-30T05:03:37;21.10;;;16.17;;
53036;SDS011;38924;52.134;4.666;2023-04-30T05:06:03;19.30;;;15.15;;
53036;SDS011;38924;52.134;4.666;2023-04-30T05:08:30;22.20;;;15.05;;
53036;SDS011;38924;52.134;4.666;2023-04-30T05:10:55;26.90;;;15.95;;
53036;SDS011;38924;52.134;4.666;2023-04-30T05:13:21;20.00;;;15.27;;
53036;SDS011;38924;52.134;4.666;2023-04-30T05:15:50;21.10;;;13.82;;
53036;SDS011;38924;52.134;4.666;2023-04-30T05:18:16;20.20;;;14.30;;
53036;SDS011;38924;52.134;4.666;2023-04-30T05:20:41;16.67;;;13.40;;
53036;SDS011;38924;52.134;4.666;2023-04-30T05:23:07;20.58;;;14.13;;
53036;SDS011;38924;52.134;4.666;2023-04-30T05:25:34;16.50;;;12.93;;
53036;SDS011;38924;52.134;4.666;2023-04-30T05:27:59;16.35;;;11.50;;
53036;SDS011;38924;52.134;4.666;2023-04-30T05:30:25;16.02;;;12.30;;
53036;SDS011;38924;52.134;4.666;2023-04-30T05:32:51;18.70;;;11.68;;
53036;SDS011;38924;52.134;4.666;2023-04-30T05:35:17;13.50;;;9.88;;
53036;SDS011;38924;52.134;4.666;2023-04-30T05:37:43;12.77;;;11.52;;
53036;SDS011;38924;52.134;4.666;2023-04-30T05:40:09;16.45;;;10.45;;
53036;SDS011;38924;52.134;4.666;2023-04-30T05:42:34;11.00;;;9.43;;
53036;SDS011;38924;52.134;4.666;2023-04-30T05:45:01;10.68;;;9.38;;
53036;SDS011;38924;52.134;4.666;2023-04-30T05:47:26;11.15;;;9.27;;
53036;SDS011;38924;52.134;4.666;2023-04-30T05:49:52;11.02;;;9.13;;
53036;SDS011;38924;52.134;4.666;2023-04-30T05:52:18;16.48;;;9.15;;
53036;SDS011;38924;52.134;4.666;2023-04-30T05:54:43;8.70;;;7.65;;
53036;SDS011;38924;52.134;4.666;2023-04-30T05:57:09;9.43;;;7.15;;
53036;SDS011;38924;52.134;4.666;2023-04-30T05:59:35;11.38;;;8.40;;
53036;SDS011;38924;52.134;4.666;2023-04-30T06:02:01;12.25;;;8.07;;
53036;SDS011;38924;52.134;4.666;2023-04-30T06:04:27;9.60;;;7.57;;
53036;SDS011;38924;52.134;4.666;2023-04-30T06:06:52;13.85;;;7.63;;
53036;SDS011;38924;52.134;4.666;2023-04-30T06:09:18;8.73;;;6.47;;
53036;SDS011;38924;52.134;4.666;2023-04-30T06:11:44;11.95;;;9.50;;
53036;SDS011;38924;52.134;4.666;2023-04-30T06:14:10;8.73;;;7.72;;
53036;SDS011;38924;52.134;4.666;2023-04-30T06:16:35;11.35;;;7.55;;
53036;SDS011;38924;52.134;4.666;2023-04-30T06:19:02;12.10;;;7.30;;
53036;SDS011;38924;52.134;4.666;2023-04-30T06:21:27;9.80;;;7.45;;
53036;SDS011;38924;52.134;4.666;2023-04-30T06:23:53;11.13;;;8.00;;
53036;SDS011;38924;52.134;4.666;2023-04-30T06:26:19;10.98;;;8.60;;
53036;SDS011;38924;52.134;4.666;2023-04-30T06:28:44;9.43;;;7.82;;
53036;SDS011;38924;52.134;4.666;2023-04-30T06:31:11;12.38;;;8.43;;
53036;SDS011;38924;52.134;4.666;2023-04-30T06:33:36;8.25;;;7.15;;
53036;SDS011;38924;52.134;4.666;2023-04-30T06:36:02;8.18;;;7.15;;
53036;SDS011;38924;52.134;4.666;2023-04-30T06:38:34;9.95;;;7.10;;
53036;SDS011;38924;52.134;4.666;2023-04-30T06:40:59;8.85;;;7.88;;
53036;SDS011;38924;52.134;4.666;2023-04-30T06:43:25;9.95;;;6.90;;
53036;SDS011;38924;52.134;4.666;2023-04-30T06:45:51;11.10;;;7.03;;
53036;SDS011;38924;52.134;4.666;2023-04-30T06:48:16;10.90;;;7.15;;
53036;SDS011;38924;52.134;4.666;2023-04-30T06:50:42;8.95;;;6.70;;
53036;SDS011;38924;52.134;4.666;2023-04-30T06:53:11;7.57;;;6.45;;
53036;SDS011;38924;52.134;4.666;2023-04-30T06:55:36;10.07;;;7.70;;
53036;SDS011;38924;52.134;4.666;2023-04-30T06:58:02;8.68;;;5.95;;
53036;SDS011;38924;52.134;4.666;2023-04-30T07:00:30;12.57;;;6.38;;
53036;SDS011;38924;52.134;4.666;2023-04-30T07:02:55;9.57;;;7.05;;
53036;SDS011;38924;52.134;4.666;2023-04-30T07:05:21;11.32;;;6.93;;
53036;SDS011;38924;52.134;4.666;2023-04-30T07:07:47;9.05;;;7.07;;
53036;SDS011;38924;52.134;4.666;2023-04-30T07:10:13;8.55;;;6.45;;
53036;SDS011;38924;52.134;4.666;2023-04-30T07:12:39;10.73;;;7.25;;
53036;SDS011;38924;52.134;4.666;2023-04-30T07:15:04;11.90;;;7.00;;
53036;SDS011;38924;52.134;4.666;2023-04-30T07:17:30;8.55;;;6.03;;
53036;SDS011;38924;52.134;4.666;2023-04-30T07:19:56;7.13;;;5.78;;
53036;SDS011;38924;52.134;4.666;2023-04-30T07:22:22;9.18;;;7.15;;
53036;SDS011;38924;52.134;4.666;2023-04-30T07:24:47;7.80;;;5.88;;
53036;SDS011;38924;52.134;4.666;2023-04-30T07:27:13;8.85;;;6.40;;
53036;SDS011;38924;52.134;4.666;2023-04-30T07:29:39;8.18;;;6.20;;
53036;SDS011;38924;52.134;4.666;2023-04-30T07:32:04;7.40;;;5.82;;
53036;SDS011;38924;52.134;4.666;2023-04-30T07:34:30;7.65;;;6.38;;
53036;SDS011;38924;52.134;4.666;2023-04-30T07:36:55;8.63;;;5.93;;
53036;SDS011;38924;52.134;4.666;2023-04-30T07:39:21;6.32;;;5.55;;
53036;SDS011;38924;52.134;4.666;2023-04-30T07:41:47;8.32;;;5.95;;
53036;SDS011;38924;52.134;4.666;2023-04-30T07:44:12;7.32;;;5.20;;
53036;SDS011;38924;52.134;4.666;2023-04-30T07:46:38;7.90;;;6.03;;
53036;SDS011;38924;52.134;4.666;2023-04-30T07:49:04;8.95;;;5.95;;
53036;SDS011;38924;52.134;4.666;2023-04-30T07:51:30;10.13;;;6.43;;
53036;SDS011;38924;52.134;4.666;2023-04-30T07:53:57;7.93;;;5.88;;
53036;SDS011;38924;52.134;4.666;2023-04-30T07:56:22;10.57;;;5.95;;
53036;SDS011;38924;52.134;4.666;2023-04-30T07:58:48;8.70;;;5.57;;
53036;SDS011;38924;52.134;4.666;2023-04-30T08:01:14;7.50;;;5.85;;
53036;SDS011;38924;52.134;4.666;2023-04-30T08:03:40;6.18;;;5.53;;
53036;SDS011;38924;52.134;4.666;2023-04-30T08:06:05;7.25;;;5.78;;
53036;SDS011;38924;52.134;4.666;2023-04-30T08:08:32;9.20;;;6.28;;
53036;SDS011;38924;52.134;4.666;2023-04-30T08:10:57;6.45;;;5.45;;
53036;SDS011;38924;52.134;4.666;2023-04-30T08:13:23;8.68;;;5.72;;
53036;SDS011;38924;52.134;4.666;2023-04-30T08:15:49;7.28;;;6.55;;
53036;SDS011;38924;52.134;4.666;2023-04-30T08:18:14;8.18;;;7.38;;
53036;SDS011;38924;52.134;4.666;2023-04-30T08:20:40;8.23;;;5.47;;
53036;SDS011;38924;52.134;4.666;2023-04-30T08:23:06;13.05;;;6.28;;
53036;SDS011;38924;52.134;4.666;2023-04-30T08:25:31;8.55;;;6.03;;
53036;SDS011;38924;52.134;4.666;2023-04-30T08:27:57;6.57;;;5.88;;
53036;SDS011;38924;52.134;4.666;2023-04-30T08:30:23;8.88;;;6.63;;
53036;SDS011;38924;52.134;4.666;2023-04-30T08:32:49;7.82;;;5.78;;
53036;SDS011;38924;52.134;4.666;2023-04-30T08:35:15;13.77;;;8.27;;
53036;SDS011;38924;52.134;4.666;2023-04-30T08:37:44;10.38;;;8.23;;
53036;SDS011;38924;52.134;4.666;2023-04-30T08:40:12;11.13;;;9.63;;
53036;SDS011;38924;52.134;4.666;2023-04-30T08:42:40;10.32;;;9.13;;
53036;SDS011;38924;52.134;4.666;2023-04-30T08:45:07;9.45;;;7.80;;
53036;SDS011;38924;52.134;4.666;2023-04-30T08:47:36;10.48;;;9.48;;
53036;SDS011;38924;52.134;4.666;2023-04-30T08:50:03;9.65;;;8.63;;
53036;SDS011;38924;52.134;4.666;2023-04-30T08:52:29;10.77;;;9.85;;
53036;SDS011;38924;52.134;4.666;2023-04-30T08:54:56;9.88;;;8.98;;
53036;SDS011;38924;52.134;4.666;2023-04-30T08:57:23;11.00;;;9.93;;
53036;SDS011;38924;52.134;4.666;2023-04-30T08:59:49;11.88;;;10.65;;
53036;SDS011;38924;52.134;4.666;2023-04-30T09:02:14;9.50;;;8.60;;
53036;SDS011;38924;52.134;4.666;2023-04-30T09:04:40;11.98;;;10.77;;
53036;SDS011;38924;52.134;4.666;2023-04-30T09:07:06;10.88;;;9.40;;
53036;SDS011;38924;52.134;4.666;2023-04-30T09:09:36;12.65;;;11.57;;
53036;SDS011;38924;52.134;4.666;2023-04-30T09:17:28;11.75;;;10.82;;
53036;SDS011;38924;52.134;4.666;2023-04-30T09:19:54;11.77;;;10.77;;
53036;SDS011;38924;52.134;4.666;2023-04-30T09:22:30;14.05;;;12.95;;
53036;SDS011;38924;52.134;4.666;2023-04-30T09:24:55;12.68;;;11.65;;
53036;SDS011;38924;52.134;4.666;2023-04-30T09:27:21;12.25;;;11.38;;
53036;SDS011;38924;52.134;4.666;2023-04-30T09:29:50;12.35;;;11.35;;
53036;SDS011;38924;52.134;4.666;2023-04-30T09:32:16;18.38;;;16.60;;
53036;SDS011;38924;52.134;4.666;2023-04-30T09:34:44;13.82;;;12.73;;
53036;SDS011;38924;52.134;4.666;2023-04-30T09:37:13;12.73;;;11.52;;
53036;SDS011;38924;52.134;4.666;2023-04-30T09:39:50;14.55;;;13.35;;
53036;SDS011;38924;52.134;4.666;2023-04-30T09:42:16;13.52;;;12.32;;
53036;SDS011;38924;52.134;4.666;2023-04-30T09:44:42;13.20;;;12.07;;
53036;SDS011;38924;52.134;4.666;2023-04-30T09:47:12;13.32;;;11.93;;
53036;SDS011;38924;52.134;4.666;2023-04-30T09:49:39;12.05;;;11.05;;
53036;SDS011;38924;52.134;4.666;2023-04-30T09:52:05;14.48;;;13.27;;
53036;SDS011;38924;52.134;4.666;2023-04-30T09:54:32;14.52;;;13.52;;
53036;SDS011;38924;52.134;4.666;2023-04-30T09:56:58;13.95;;;12.68;;
53036;SDS011;38924;52.134;4.666;2023-04-30T10:01:52;13.23;;;11.95;;
53036;SDS011;38924;52.134;4.666;2023-04-30T10:04:18;11.90;;;10.98;;
53036;SDS011;38924;52.134;4.666;2023-04-30T10:06:45;12.25;;;11.23;;
53036;SDS011;38924;52.134;4.666;2023-04-30T10:09:11;15.27;;;13.88;;
53036;SDS011;38924;52.134;4.666;2023-04-30T10:11:40;12.50;;;11.50;;
53036;SDS011;38924;52.134;4.666;2023-04-30T10:14:11;11.60;;;10.60;;
53036;SDS011;38924;52.134;4.666;2023-04-30T10:16:39;11.93;;;11.20;;
53036;SDS011;38924;52.134;4.666;2023-04-30T10:19:08;13.90;;;12.82;;
53036;SDS011;38924;52.134;4.666;2023-04-30T10:21:37;15.05;;;13.98;;
53036;SDS011;38924;52.134;4.666;2023-04-30T10:24:04;12.98;;;12.07;;
53036;SDS011;38924;52.134;4.666;2023-04-30T10:26:31;12.32;;;11.35;;
53036;SDS011;38924;52.134;4.666;2023-04-30T10:28:57;13.70;;;12.60;;
53036;SDS011;38924;52.134;4.666;2023-04-30T10:31:25;13.52;;;12.43;;
53036;SDS011;38924;52.134;4.666;2023-04-30T10:36:40;14.23;;;12.98;;
53036;SDS011;38924;52.134;4.666;2023-04-30T10:39:06;14.02;;;12.93;;
53036;SDS011;38924;52.134;4.666;2023-04-30T10:41:32;15.45;;;14.13;;
53036;SDS011;38924;52.134;4.666;2023-04-30T10:44:00;12.82;;;11.93;;
53036;SDS011;38924;52.134;4.666;2023-04-30T10:46:26;13.48;;;12.45;;
53036;SDS011;38924;52.134;4.666;2023-04-30T10:48:53;13.52;;;12.50;;
53036;SDS011;38924;52.134;4.666;2023-04-30T10:51:22;12.07;;;10.98;;
53036;SDS011;38924;52.134;4.666;2023-04-30T10:53:48;12.90;;;12.02;;
53036;SDS011;38924;52.134;4.666;2023-04-30T10:56:27;13.40;;;12.35;;
53036;SDS011;38924;52.134;4.666;2023-04-30T10:58:57;13.50;;;12.55;;
53036;SDS011;38924;52.134;4.666;2023-04-30T11:01:22;11.77;;;10.73;;
53036;SDS011;38924;52.134;4.666;2023-04-30T11:04:07;14.50;;;13.40;;
53036;SDS011;38924;52.134;4.666;2023-04-30T11:09:18;10.75;;;9.98;;
53036;SDS011;38924;52.134;4.666;2023-04-30T11:11:44;16.27;;;14.73;;
53036;SDS011;38924;52.134;4.666;2023-04-30T11:14:11;13.77;;;12.77;;
53036;SDS011;38924;52.134;4.666;2023-04-30T11:16:36;15.60;;;14.10;;
53036;SDS011;38924;52.134;4.666;2023-04-30T11:19:06;14.63;;;13.43;;
53036;SDS011;38924;52.134;4.666;2023-04-30T11:21:32;13.63;;;12.65;;
53036;SDS011;38924;52.134;4.666;2023-04-30T11:24:02;14.32;;;12.93;;
53036;SDS011;38924;52.134;4.666;2023-04-30T11:26:28;15.07;;;13.88;;
53036;SDS011;38924;52.134;4.666;2023-04-30T11:28:54;13.68;;;12.45;;
53036;SDS011;38924;52.134;4.666;2023-04-30T11:31:20;14.15;;;13.07;;
53036;SDS011;38924;52.134;4.666;2023-04-30T11:33:47;12.05;;;11.07;;
53036;SDS011;38924;52.134;4.666;2023-04-30T11:36:13;13.38;;;12.23;;
53036;SDS011;38924;52.134;4.666;2023-04-30T11:38:39;14.20;;;13.05;;
53036;SDS011;38924;52.134;4.666;2023-04-30T11:41:05;11.98;;;11.18;;
53036;SDS011;38924;52.134;4.666;2023-04-30T11:43:31;13.73;;;12.68;;
53036;SDS011;38924;52.134;4.666;2023-04-30T11:48:33;15.55;;;14.35;;
53036;SDS011;38924;52.134;4.666;2023-04-30T11:51:01;12.38;;;11.48;;
53036;SDS011;38924;52.134;4.666;2023-04-30T11:53:27;15.00;;;13.57;;
53036;SDS011;38924;52.134;4.666;2023-04-30T11:55:53;13.00;;;12.13;;
53036;SDS011;38924;52.134;4.666;2023-04-30T11:58:20;13.65;;;12.55;;
53036;SDS011;38924;52.134;4.666;2023-04-30T12:00:45;12.48;;;11.50;;
53036;SDS011;38924;52.134;4.666;2023-04-30T12:03:13;13.80;;;12.70;;
53036;SDS011;38924;52.134;4.666;2023-04-30T12:05:39;13.07;;;12.15;;
53036;SDS011;38924;52.134;4.666;2023-04-30T12:08:05;14.55;;;13.30;;
53036;SDS011;38924;52.134;4.666;2023-04-30T12:10:35;30.60;;;12.88;;
53036;SDS011;38924;52.134;4.666;2023-04-30T12:13:01;11.70;;;10.73;;
53036;SDS011;38924;52.134;4.666;2023-04-30T12:15:26;10.70;;;9.90;;
53036;SDS011;38924;52.134;4.666;2023-04-30T12:17:54;11.80;;;11.00;;
53036;SDS011;38924;52.134;4.666;2023-04-30T12:20:20;8.95;;;8.32;;
53036;SDS011;38924;52.134;4.666;2023-04-30T12:22:46;10.35;;;9.55;;
53036;SDS011;38924;52.134;4.666;2023-04-30T12:25:13;10.25;;;9.48;;
53036;SDS011;38924;52.134;4.666;2023-04-30T12:27:39;10.70;;;9.88;;
53036;SDS011;38924;52.134;4.666;2023-04-30T12:30:06;11.95;;;10.95;;
53036;SDS011;38924;52.134;4.666;2023-04-30T12:32:43;10.98;;;10.05;;
53036;SDS011;38924;52.134;4.666;2023-04-30T12:35:14;10.98;;;10.23;;
53036;SDS011;38924;52.134;4.666;2023-04-30T12:37:40;12.00;;;11.07;;
53036;SDS011;38924;52.134;4.666;2023-04-30T12:40:09;12.05;;;11.18;;
53036;SDS011;38924;52.134;4.666;2023-04-30T12:42:35;12.02;;;11.00;;
53036;SDS011;38924;52.134;4.666;2023-04-30T12:45:01;10.05;;;9.25;;
53036;SDS011;38924;52.134;4.666;2023-04-30T12:47:29;11.80;;;10.77;;
53036;SDS011;38924;52.134;4.666;2023-04-30T12:49:55;11.45;;;10.52;;
53036;SDS011;38924;52.134;4.666;2023-04-30T12:52:24;11.73;;;10.73;;
53036;SDS011;38924;52.134;4.666;2023-04-30T12:54:50;10.07;;;9.20;;
53036;SDS011;38924;52.134;4.666;2023-04-30T12:57:16;9.32;;;8.43;;
53036;SDS011;38924;52.134;4.666;2023-04-30T13:02:22;8.85;;;8.10;;
53036;SDS011;38924;52.134;4.666;2023-04-30T13:04:48;10.18;;;9.38;;
53036;SDS011;38924;52.134;4.666;2023-04-30T13:07:14;12.07;;;11.00;;
53036;SDS011;38924;52.134;4.666;2023-04-30T13:09:39;10.18;;;9.20;;
53036;SDS011;38924;52.134;4.666;2023-04-30T13:12:05;10.40;;;9.38;;
53036;SDS011;38924;52.134;4.666;2023-04-30T13:14:31;10.45;;;9.55;;
53036;SDS011;38924;52.134;4.666;2023-04-30T13:16:57;14.50;;;10.27;;
53036;SDS011;38924;52.134;4.666;2023-04-30T13:19:23;9.00;;;8.23;;
53036;SDS011;38924;52.134;4.666;2023-04-30T13:21:49;10.18;;;9.35;;
53036;SDS011;38924;52.134;4.666;2023-04-30T13:24:15;13.38;;;12.10;;
53036;SDS011;38924;52.134;4.666;2023-04-30T13:26:42;11.45;;;10.35;;
53036;SDS011;38924;52.134;4.666;2023-04-30T13:29:07;11.82;;;10.93;;
53036;SDS011;38924;52.134;4.666;2023-04-30T13:31:33;11.23;;;10.20;;
53036;SDS011;38924;52.134;4.666;2023-04-30T13:33:59;10.07;;;9.30;;
53036;SDS011;38924;52.134;4.666;2023-04-30T13:36:25;10.15;;;9.32;;
53036;SDS011;38924;52.134;4.666;2023-04-30T13:38:51;10.10;;;9.27;;
53036;SDS011;38924;52.134;4.666;2023-04-30T13:41:17;8.70;;;7.90;;
53036;SDS011;38924;52.134;4.666;2023-04-30T13:43:43;9.30;;;8.48;;
53036;SDS011;38924;52.134;4.666;2023-04-30T13:46:10;9.43;;;8.55;;
53036;SDS011;38924;52.134;4.666;2023-04-30T13:48:36;12.70;;;11.82;;
53036;SDS011;38924;52.134;4.666;2023-04-30T13:51:02;8.63;;;7.88;;
53036;SDS011;38924;52.134;4.666;2023-04-30T13:53:27;9.57;;;8.85;;
53036;SDS011;38924;52.134;4.666;2023-04-30T13:55:53;11.65;;;10.50;;
53036;SDS011;38924;52.134;4.666;2023-04-30T13:58:21;10.18;;;9.38;;
53036;SDS011;38924;52.134;4.666;2023-04-30T14:00:47;11.60;;;10.65;;
53036;SDS011;38924;52.134;4.666;2023-04-30T14:03:13;9.02;;;8.32;;
53036;SDS011;38924;52.134;4.666;2023-04-30T14:05:38;8.90;;;8.10;;
53036;SDS011;38924;52.134;4.666;2023-04-30T14:08:04;12.10;;;11.02;;
53036;SDS011;38924;52.134;4.666;2023-04-30T14:10:30;10.18;;;9.38;;
53036;SDS011;38924;52.134;4.666;2023-04-30T14:12:57;11.73;;;10.82;;
53036;SDS011;38924;52.134;4.666;2023-04-30T14:15:22;8.48;;;7.75;;
53036;SDS011;38924;52.134;4.666;2023-04-30T14:17:49;7.70;;;6.85;;
53036;SDS011;38924;52.134;4.666;2023-04-30T14:20:14;7.13;;;6.53;;
53036;SDS011;38924;52.134;4.666;2023-04-30T14:22:40;10.02;;;9.25;;
53036;SDS011;38924;52.134;4.666;2023-04-30T14:25:09;12.13;;;11.10;;
53036;SDS011;38924;52.134;4.666;2023-04-30T14:27:36;10.82;;;9.82;;
53036;SDS011;38924;52.134;4.666;2023-04-30T14:30:02;8.27;;;7.43;;
53036;SDS011;38924;52.134;4.666;2023-04-30T14:32:28;7.78;;;7.03;;
53036;SDS011;38924;52.134;4.666;2023-04-30T14:34:54;8.88;;;8.18;;
53036;SDS011;38924;52.134;4.666;2023-04-30T14:37:19;6.55;;;5.88;;
53036;SDS011;38924;52.134;4.666;2023-04-30T14:39:45;8.43;;;6.47;;
53036;SDS011;38924;52.134;4.666;2023-04-30T14:42:11;6.75;;;6.15;;
53036;SDS011;38924;52.134;4.666;2023-04-30T14:44:36;8.68;;;7.88;;
53036;SDS011;38924;52.134;4.666;2023-04-30T14:47:02;7.03;;;5.63;;
53036;SDS011;38924;52.134;4.666;2023-04-30T14:49:28;6.10;;;5.57;;
53036;SDS011;38924;52.134;4.666;2023-04-30T14:51:54;10.70;;;8.05;;
53036;SDS011;38924;52.134;4.666;2023-04-30T14:54:20;7.82;;;6.30;;
53036;SDS011;38924;52.134;4.666;2023-04-30T14:56:46;7.45;;;6.72;;
53036;SDS011;38924;52.134;4.666;2023-04-30T14:59:12;9.02;;;7.75;;